Time;durP1;ratioP1;P1;durP2;ratioP2;P2;SDS_P1;SDS_P2;PMS_P1;PMS_P2;Temp;Humidity;BMP_temperature;BMP_pressure;BME280_temperature;BME280_humidity;BME280_pressure;Samples;Min_cycle;Max_cycle;Signal;HPM_P1;HPM_P2
2021/10/26 00:03:02;;;;;;;2.60;0.70;;;;;;;8.26;100.00;99727.53;6290096;22;20515;-47
2021/10/26 00:06:04;;;;;;;0.55;0.55;;;;;;;8.27;100.00;99712.44;6288348;22;20103;-48
2021/10/26 00:09:08;;;;;;;2.88;0.75;;;;;;;8.28;100.00;99725.06;6288613;22;20022;-47
2021/10/26 00:12:12;;;;;;;4.85;1.00;;;;;;;8.26;100.00;99708.91;6288532;22;20415;-47
2021/10/26 00:15:15;;;;;;;2.60;0.80;;;;;;;8.29;100.00;99707.19;6288459;22;20781;-47
2021/10/26 00:18:18;;;;;;;2.30;0.55;;;;;;;8.34;100.00;99706.56;6288555;22;20025;-47
2021/10/26 00:21:21;;;;;;;0.50;0.50;;;;;;;8.27;100.00;99707.66;6270094;22;20084;-47
2021/10/26 00:24:24;;;;;;;7.32;1.58;;;;;;;8.23;100.00;99706.22;6288094;22;20030;-47
2021/10/26 00:27:28;;;;;;;1.33;0.70;;;;;;;8.21;100.00;99708.69;6288342;22;20402;-47
2021/10/26 00:30:31;;;;;;;1.95;0.57;;;;;;;8.17;100.00;99708.09;6288360;22;20084;-47
2021/10/26 00:33:34;;;;;;;4.28;1.75;;;;;;;8.17;100.00;99717.19;6287517;22;20013;-47
2021/10/26 00:36:38;;;;;;;7.47;1.35;;;;;;;8.16;100.00;99734.28;6287623;22;20641;-47
2021/10/26 00:39:41;;;;;;;0.93;0.93;;;;;;;8.13;100.00;99726.88;6287983;22;20017;-47
2021/10/26 00:42:44;;;;;;;3.15;0.80;;;;;;;8.04;100.00;99729.66;6288724;22;20381;-47
2021/10/26 00:45:48;;;;;;;3.30;0.70;;;;;;;8.01;100.00;99727.81;6289070;22;21003;-47
2021/10/26 00:48:51;;;;;;;0.32;0.30;;;;;;;7.95;100.00;99729.66;6288638;22;20022;-47
2021/10/26 00:51:55;;;;;;;4.25;0.88;;;;;;;7.92;100.00;99731.34;6287993;22;20275;-47
2021/10/26 00:54:59;;;;;;;1.35;0.35;;;;;;;7.85;100.00;99731.66;6288212;22;20026;-47
2021/10/26 00:58:02;;;;;;;0.98;0.55;;;;;;;7.88;100.00;99730.72;6288029;22;20705;-47
2021/10/26 01:01:05;;;;;;;1.55;0.60;;;;;;;7.91;100.00;99729.78;6287963;22;20013;-47
2021/10/26 01:04:08;;;;;;;0.63;0.63;;;;;;;7.95;100.00;99732.44;6290281;22;20018;-47
2021/10/26 01:07:12;;;;;;;2.38;0.63;;;;;;;7.97;100.00;99727.94;6292290;22;20014;-47
2021/10/26 01:10:15;;;;;;;0.75;0.75;;;;;;;8.07;100.00;99731.50;6292912;22;20107;-47
2021/10/26 01:13:23;;;;;;;1.73;0.38;;;;;;;8.11;100.00;99726.56;6292512;22;20648;-48
2021/10/26 01:16:26;;;;;;;0.20;0.13;;;;;;;8.21;100.00;99733.66;6292139;22;20352;-47
2021/10/26 01:19:42;;;;;;;0.30;0.30;;;;;;;8.29;100.00;99721.81;6292500;22;20038;-47
2021/10/26 01:22:45;;;;;;;0.60;0.60;;;;;;;8.48;100.00;99721.81;6292291;22;20467;-47
2021/10/26 01:25:49;;;;;;;0.20;0.20;;;;;;;8.52;100.00;99720.41;6271784;22;20038;-47
2021/10/26 01:28:53;;;;;;;1.35;0.57;;;;;;;8.64;100.00;99718.72;6290620;22;20013;-47
2021/10/26 01:31:56;;;;;;;1.45;0.35;;;;;;;8.68;100.00;99725.66;6290488;22;20429;-47
2021/10/26 01:34:59;;;;;;;1.40;0.98;;;;;;;8.79;100.00;99723.13;6291852;22;20067;-47
2021/10/26 01:38:03;;;;;;;0.15;0.15;;;;;;;8.97;100.00;99733.44;6290305;22;20339;-48
2021/10/26 01:41:06;;;;;;;0.40;0.40;;;;;;;9.08;100.00;99717.81;6271826;22;20022;-47
2021/10/26 01:44:09;;;;;;;0.30;0.30;;;;;;;9.24;100.00;99710.34;6291096;22;20073;-47
2021/10/26 01:47:13;;;;;;;0.40;0.40;;;;;;;9.39;100.00;99711.19;6289391;22;20072;-47
2021/10/26 01:50:17;;;;;;;0.30;0.30;;;;;;;9.50;100.00;99700.34;6289173;22;20524;-47
2021/10/26 01:53:20;;;;;;;0.28;0.28;;;;;;;9.57;100.00;99700.00;6289776;22;20017;-47
2021/10/26 01:56:24;;;;;;;0.38;0.15;;;;;;;9.66;100.00;99692.34;6289139;22;20060;-48
2021/10/26 01:59:27;;;;;;;7.57;0.30;;;;;;;9.73;100.00;99692.00;6289974;22;20086;-47
2021/10/26 02:02:29;;;;;;;0.57;0.40;;;;;;;9.85;100.00;99679.84;6289867;22;20233;-47
2021/10/26 02:05:32;;;;;;;1.00;0.30;;;;;;;9.88;100.00;99686.47;6288907;22;20102;-48
2021/10/26 02:08:36;;;;;;;0.20;0.20;;;;;;;9.96;100.00;99701.59;6288672;22;20071;-47
2021/10/26 02:11:39;;;;;;;1.63;1.52;;;;;;;9.99;100.00;99697.84;6288949;22;20035;-48
2021/10/26 02:14:42;;;;;;;0.82;0.52;;;;;;;10.03;100.00;99686.53;6288897;22;20057;-47
2021/10/26 02:17:46;;;;;;;0.82;0.47;;;;;;;10.06;100.00;99686.34;6293209;22;20018;-48
2021/10/26 02:20:49;;;;;;;0.30;0.30;;;;;;;10.12;100.00;99690.03;6289630;22;20482;-48
2021/10/26 02:23:53;;;;;;;0.57;0.57;;;;;;;10.12;100.00;99690.03;6290264;22;20518;-47
2021/10/26 02:26:56;;;;;;;0.30;0.20;;;;;;;10.18;100.00;99682.56;6270636;22;20084;-48
2021/10/26 02:29:59;;;;;;;0.98;0.30;;;;;;;10.19;100.00;99686.88;6289779;22;20416;-47
2021/10/26 02:33:02;;;;;;;3.75;0.38;;;;;;;10.22;100.00;99685.91;6338758;22;20400;-48
2021/10/26 02:36:06;;;;;;;0.47;0.22;;;;;;;10.22;100.00;99683.13;6339255;22;20455;-47
2021/10/26 02:39:09;;;;;;;0.40;0.40;;;;;;;10.24;100.00;99677.88;6339575;22;20026;-47
2021/10/26 02:42:11;;;;;;;1.33;0.55;;;;;;;10.35;100.00;99680.84;6339078;22;20064;-47
2021/10/26 02:45:16;;;;;;;0.10;0.10;;;;;;;10.37;100.00;99683.94;6338922;22;20029;-48
2021/10/26 02:48:19;;;;;;;0.28;0.28;;;;;;;10.36;100.00;99687.97;6339244;22;20026;-47
2021/10/26 02:51:22;;;;;;;1.90;0.60;;;;;;;10.42;100.00;99686.06;6338563;22;20063;-47
2021/10/26 02:54:25;;;;;;;0.10;0.10;;;;;;;10.42;100.00;99669.34;6338975;22;20045;-48
2021/10/26 02:57:28;;;;;;;0.32;0.20;;;;;;;10.44;100.00;99678.00;6319813;22;20077;-48
2021/10/26 03:00:30;;;;;;;1.42;0.40;;;;;;;10.45;100.00;99676.75;6339001;22;20072;-48
2021/10/26 03:03:33;;;;;;;1.38;0.28;;;;;;;10.45;100.00;99682.31;6338937;22;20029;-47
2021/10/26 03:06:36;;;;;;;0.30;0.10;;;;;;;10.43;100.00;99678.47;6339173;22;20328;-47
2021/10/26 03:09:39;;;;;;;0.30;0.30;;;;;;;10.42;100.00;99672.13;6339069;22;20152;-47
2021/10/26 03:12:42;;;;;;;0.20;0.20;;;;;;;10.41;100.00;99670.59;6338803;22;20111;-47
2021/10/26 03:15:44;;;;;;;0.10;0.10;;;;;;;10.44;100.00;99666.84;6338552;22;20067;-48
2021/10/26 03:18:47;;;;;;;0.50;0.43;;;;;;;10.52;100.00;99676.38;6338367;22;20037;-48
2021/10/26 03:21:50;;;;;;;0.10;0.10;;;;;;;10.48;100.00;99672.25;6338956;22;20080;-48
2021/10/26 03:24:56;;;;;;;0.28;0.28;;;;;;;10.47;100.00;99670.69;6338958;22;20156;-47
2021/10/26 03:28:00;;;;;;;0.20;0.20;;;;;;;10.42;100.00;99680.47;6338680;22;20343;-48
2021/10/26 03:31:04;;;;;;;0.28;0.28;;;;;;;10.41;100.00;99678.97;6339184;22;20022;-47
2021/10/26 03:34:08;;;;;;;0.32;0.25;;;;;;;10.40;100.00;99671.06;6339032;22;20022;-48
2021/10/26 03:37:11;;;;;;;0.20;0.20;;;;;;;10.38;100.00;99677.13;6339259;22;20025;-47
2021/10/26 03:40:14;;;;;;;0.47;0.47;;;;;;;10.39;100.00;99678.66;6338534;22;20088;-48
2021/10/26 03:43:17;;;;;;;0.28;0.28;;;;;;;10.40;100.00;99674.63;6338878;22;20496;-48
2021/10/26 03:46:19;;;;;;;1.75;0.28;;;;;;;10.43;100.00;99670.91;6319346;22;20056;-47
2021/10/26 03:49:22;;;;;;;4.82;1.20;;;;;;;10.38;100.00;99677.13;6338639;22;20026;-48
2021/10/26 03:52:25;;;;;;;5.80;0.55;;;;;;;10.36;100.00;99676.84;6338600;22;20056;-48
2021/10/26 03:55:28;;;;;;;0.40;0.30;;;;;;;10.37;100.00;99677.63;6338593;22;20025;-48
2021/10/26 03:58:32;;;;;;;0.22;0.20;;;;;;;10.43;100.00;99684.81;6338556;22;20584;-48
2021/10/26 04:01:37;;;;;;;0.30;0.30;;;;;;;10.40;100.00;99685.75;6338547;22;20025;-48
2021/10/26 04:04:40;;;;;;;0.22;0.17;;;;;;;10.38;100.00;99688.25;6319121;22;20075;-48
2021/10/26 04:07:54;;;;;;;0.10;0.10;;;;;;;10.39;100.00;99678.66;6338863;22;20025;-47
2021/10/26 04:11:18;;;;;;;3.33;0.50;;;;;;;10.42;100.00;99690.84;6338370;22;20025;-48
2021/10/26 04:14:22;;;;;;;3.10;0.43;;;;;;;10.42;100.00;99680.47;6338148;22;20466;-47
2021/10/26 04:17:27;;;;;;;3.80;0.40;;;;;;;10.42;100.00;99676.91;6338290;22;20068;-47
2021/10/26 04:20:30;;;;;;;0.30;0.30;;;;;;;10.46;100.00;99681.06;6338919;22;20025;-48
2021/10/26 04:23:34;;;;;;;0.32;0.32;;;;;;;10.47;100.00;99688.19;6337768;22;20108;-48
2021/10/26 04:26:37;;;;;;;19.98;0.50;;;;;;;10.49;100.00;99691.25;6318975;22;20076;-47
2021/10/26 04:29:41;;;;;;;0.70;0.68;;;;;;;10.52;100.00;99689.53;6337904;22;20355;-47
2021/10/26 04:32:45;;;;;;;0.70;0.40;;;;;;;10.55;100.00;99689.31;6337948;22;20071;-48
2021/10/26 04:35:47;;;;;;;0.20;0.20;;;;;;;10.55;100.00;99682.97;6338202;22;20021;-48
2021/10/26 04:38:50;;;;;;;0.10;0.10;;;;;;;10.52;100.00;99698.66;6338667;22;20049;-47
2021/10/26 04:41:54;;;;;;;1.10;0.60;;;;;;;10.50;100.00;99692.03;6338241;22;20021;-48
2021/10/26 04:44:57;;;;;;;0.20;0.20;;;;;;;10.54;100.00;99698.94;6338529;22;20465;-47
2021/10/26 04:48:00;;;;;;;0.13;0.13;;;;;;;10.57;100.00;99702.75;6338561;22;20029;-47
2021/10/26 04:51:03;;;;;;;0.17;0.10;;;;;;;10.61;100.00;99709.69;6338893;22;20080;-47
2021/10/26 04:54:05;;;;;;;4.95;0.40;;;;;;;10.60;100.00;99716.50;6339729;22;20022;-48
2021/10/26 04:57:08;;;;;;;0.45;0.20;;;;;;;10.58;100.00;99710.66;6340489;22;20022;-47
2021/10/26 05:00:12;;;;;;;0.15;0.13;;;;;;;10.56;100.00;99706.81;6321260;22;20387;-47
2021/10/26 05:03:15;;;;;;;0.10;0.10;;;;;;;10.56;100.00;99701.25;6340191;22;20076;-48
2021/10/26 05:06:18;;;;;;;0.20;0.20;;;;;;;10.53;100.00;99702.97;6340448;22;20359;-48
2021/10/26 05:09:21;;;;;;;0.10;0.10;;;;;;;10.50;100.00;99694.81;6339928;22;20347;-48
2021/10/26 05:12:24;;;;;;;1.50;0.20;;;;;;;10.47;100.00;99693.75;6340080;22;20026;-48
2021/10/26 05:15:27;;;;;;;3.00;0.40;;;;;;;10.39;100.00;99680.69;6340266;22;20025;-48
2021/10/26 05:18:32;;;;;;;0.10;0.10;;;;;;;10.37;100.00;99694.31;6340437;22;20124;-48
2021/10/26 05:21:35;;;;;;;0.77;0.63;;;;;;;10.35;100.00;99689.19;6339994;22;20037;-48
2021/10/26 05:24:38;;;;;;;0.30;0.20;;;;;;;10.29;100.00;99677.19;6339742;22;20096;-47
2021/10/26 05:27:42;;;;;;;0.20;0.20;;;;;;;10.26;100.00;99671.84;6339093;22;20026;-48
2021/10/26 05:30:45;;;;;;;0.20;0.20;;;;;;;10.24;100.00;99677.88;6339705;22;20140;-47
2021/10/26 05:33:48;;;;;;;0.20;0.20;;;;;;;10.24;100.00;99686.22;6340045;22;20324;-47
2021/10/26 05:36:51;;;;;;;0.20;0.15;;;;;;;10.25;100.00;99686.97;6340159;22;20045;-47
2021/10/26 05:39:54;;;;;;;1.42;0.73;;;;;;;10.25;100.00;99681.41;6339766;22;20098;-48
2021/10/26 05:42:57;;;;;;;0.60;0.43;;;;;;;10.23;100.00;99683.91;6339942;22;20041;-47
2021/10/26 05:46:01;;;;;;;3.38;0.30;;;;;;;10.21;100.00;99681.63;6339605;22;20356;-48
2021/10/26 05:49:04;;;;;;;0.20;0.20;;;;;;;10.24;100.00;99686.22;6340068;22;20064;-47
2021/10/26 05:52:07;;;;;;;0.50;0.10;;;;;;;10.23;100.00;99684.69;6339983;22;20022;-48
2021/10/26 05:55:09;;;;;;;0.95;0.40;;;;;;;10.20;100.00;99685.63;6339727;22;20393;-48
2021/10/26 05:58:13;;;;;;;0.30;0.10;;;;;;;10.15;100.00;99683.53;6339610;22;20339;-48
2021/10/26 06:01:16;;;;;;;6.40;0.57;;;;;;;10.16;100.00;99678.72;6339484;22;20022;-48
2021/10/26 06:04:19;;;;;;;4.70;0.40;;;;;;;10.15;100.00;99677.97;6338969;22;20155;-47
2021/10/26 06:07:22;;;;;;;8.93;0.85;;;;;;;10.18;100.00;99677.00;6339829;22;20025;-47
2021/10/26 06:10:26;;;;;;;0.20;0.20;;;;;;;10.20;100.00;99682.09;6339451;22;20068;-47
2021/10/26 06:13:32;;;;;;;0.28;0.15;;;;;;;10.17;100.00;99674.69;6339551;22;20078;-47
2021/10/26 06:16:37;;;;;;;0.10;0.10;;;;;;;10.19;100.00;99672.97;6339362;22;20084;-47
2021/10/26 06:19:39;;;;;;;0.65;0.50;;;;;;;10.15;100.00;99677.97;6339711;22;20037;-47
2021/10/26 06:22:43;;;;;;;0.35;0.25;;;;;;;10.08;100.00;99677.53;6339117;22;20068;-46
2021/10/26 06:25:46;;;;;;;1.38;0.17;;;;;;;10.06;100.00;99669.66;6339121;22;20069;-47
2021/10/26 06:28:49;;;;;;;0.40;0.10;;;;;;;10.09;100.00;99682.59;6339050;22;20029;-46
2021/10/26 06:31:52;;;;;;;0.47;0.47;;;;;;;10.12;100.00;99676.13;6339050;22;20103;-46
2021/10/26 06:34:54;;;;;;;0.60;0.30;;;;;;;10.10;100.00;99673.03;6339037;22;20045;-47
2021/10/26 06:37:57;;;;;;;3.72;0.65;;;;;;;10.05;100.00;99673.66;6339565;22;20025;-47
2021/10/26 06:41:00;;;;;;;0.80;0.20;;;;;;;10.04;100.00;99677.72;6339118;22;20022;-46
2021/10/26 06:44:03;;;;;;;4.63;0.55;;;;;;;10.04;100.00;99679.72;6339313;22;20022;-46
2021/10/26 06:47:06;;;;;;;0.28;0.28;;;;;;;10.06;100.00;99666.88;6319920;22;20076;-46
2021/10/26 06:50:09;;;;;;;1.85;0.40;;;;;;;10.07;100.00;99664.88;6320339;22;20030;-46
2021/10/26 06:53:13;;;;;;;1.75;0.77;;;;;;;10.13;100.00;99669.31;6338913;22;20091;-46
2021/10/26 06:56:17;;;;;;;0.25;0.25;;;;;;;10.18;100.00;99673.47;6338943;22;20150;-46
2021/10/26 06:59:19;;;;;;;6.55;1.00;;;;;;;10.18;100.00;99674.22;6338791;22;20024;-47
2021/10/26 07:02:22;;;;;;;0.10;0.10;;;;;;;10.21;100.00;99681.63;6338949;22;20022;-47
2021/10/26 07:05:25;;;;;;;1.00;0.65;;;;;;;10.23;100.00;99681.91;6338794;22;20079;-46
2021/10/26 07:08:28;;;;;;;9.82;1.02;;;;;;;10.27;100.00;99682.47;6339256;22;20025;-46
2021/10/26 07:11:31;;;;;;;0.57;0.30;;;;;;;10.34;100.00;99684.91;6338865;22;20072;-46
2021/10/26 07:14:34;;;;;;;0.28;0.22;;;;;;;10.33;100.00;99677.78;6338341;22;20017;-47
2021/10/26 07:17:39;;;;;;;1.65;0.30;;;;;;;10.49;100.00;99671.75;6338789;22;20085;-47
2021/10/26 07:20:42;;;;;;;5.78;0.50;;;;;;;10.57;100.00;99681.25;6339005;22;20053;-47
2021/10/26 07:23:45;;;;;;;0.93;0.28;;;;;;;10.68;100.00;99671.59;6338493;22;20356;-47
2021/10/26 07:26:49;;;;;;;0.63;0.50;;;;;;;10.74;100.00;99676.00;6338838;22;20022;-47
2021/10/26 07:29:52;;;;;;;1.25;1.00;;;;;;;10.78;100.00;99664.66;6338552;22;20064;-47
2021/10/26 07:32:56;;;;;;;0.82;0.50;;;;;;;10.84;100.00;99671.84;6338614;22;20470;-47
2021/10/26 07:36:02;;;;;;;1.52;0.40;;;;;;;10.92;100.00;99686.13;6338288;22;20036;-47
2021/10/26 07:39:18;;;;;;;0.63;0.63;;;;;;;10.99;100.00;99678.16;6319591;22;20026;-47
2021/10/26 07:42:21;;;;;;;7.10;1.05;;;;;;;11.07;100.00;99672.97;6338550;22;20021;-47
2021/10/26 07:45:24;;;;;;;1.83;0.90;;;;;;;11.13;100.00;99682.19;6338366;22;20026;-47
2021/10/26 07:48:27;;;;;;;2.83;0.38;;;;;;;11.19;100.00;99680.25;6338703;22;20079;-47
2021/10/26 07:51:30;;;;;;;1.80;0.40;;;;;;;11.21;100.00;99683.31;6338816;22;20021;-47
2021/10/26 07:54:33;;;;;;;5.05;0.88;;;;;;;11.26;100.00;99679.84;6338832;22;20074;-47
2021/10/26 07:57:37;;;;;;;0.63;0.38;;;;;;;11.35;100.00;99677.69;6338784;22;20076;-47
2021/10/26 08:00:40;;;;;;;3.00;0.75;;;;;;;11.48;100.00;99679.41;6338262;22;20030;-47
2021/10/26 08:03:43;;;;;;;1.55;0.80;;;;;;;11.54;100.00;99671.88;6338255;22;20022;-47
2021/10/26 08:06:46;;;;;;;4.60;0.90;;;;;;;11.60;100.00;99665.13;6338528;22;20030;-47
2021/10/26 08:09:55;;;;;;;5.70;1.38;;;;;;;11.68;100.00;99662.69;6338443;22;20076;-47
2021/10/26 08:12:58;;;;;;;4.90;0.30;;;;;;;11.73;100.00;99662.78;6338607;22;20021;-47
2021/10/26 08:16:01;;;;;;;5.32;0.45;;;;;;;11.81;100.00;99663.13;6338182;22;20320;-47
2021/10/26 08:19:05;;;;;;;4.63;0.63;;;;;;;11.88;100.00;99652.31;6338729;22;20075;-47
2021/10/26 08:22:13;;;;;;;0.28;0.25;;;;;;;11.94;100.00;99660.75;6338645;22;20072;-47
2021/10/26 08:25:36;;;;;;;3.00;0.93;;;;;;;11.98;100.00;99673.25;6338298;22;20021;-47
2021/10/26 08:28:39;;;;;;;11.07;1.25;;;;;;;12.03;100.00;99669.75;6338234;22;20026;-47
2021/10/26 08:31:49;;;;;;;2.67;0.90;;;;;;;12.10;100.00;99671.34;6337966;22;20068;-47
2021/10/26 08:38:17;;;;;;;0.25;0.17;;;;;;;12.21;100.00;99663.09;6338740;22;20072;-47
2021/10/26 08:41:23;;;;;;;0.50;0.25;;;;;;;12.25;100.00;99657.28;6337791;22;20471;-47
2021/10/26 08:44:27;;;;;;;3.00;1.20;;;;;;;12.31;100.00;99644.16;6338514;22;20025;-47
2021/10/26 08:47:31;;;;;;;3.20;0.40;;;;;;;12.45;100.00;99648.88;6337964;22;20026;-47
2021/10/26 08:50:36;;;;;;;0.63;0.32;;;;;;;12.53;100.00;99658.34;6338182;22;20025;-47
2021/10/26 08:53:39;;;;;;;0.93;0.68;;;;;;;12.61;100.00;99667.81;6318486;22;20513;-47
2021/10/26 08:56:41;;;;;;;16.13;0.85;;;;;;;12.66;100.00;99669.88;6337866;22;20026;-47
2021/10/26 08:59:44;;;;;;;1.30;0.82;;;;;;;12.75;100.00;99664.13;6337786;22;20474;-47
2021/10/26 09:02:49;;;;;;;5.28;0.95;;;;;;;12.78;100.00;99677.09;6338241;22;20101;-47
2021/10/26 09:05:53;;;;;;;1.77;0.65;;;;;;;12.89;100.00;99671.59;6319031;22;20025;-47
2021/10/26 09:08:56;;;;;;;2.45;0.65;;;;;;;13.00;100.00;99657.72;6338315;22;20026;-47
2021/10/26 09:18:43;;;;;;;;;;;;;;;13.14;100.00;99654.06;6338293;22;20352;-47
2021/10/26 09:22:06;;;;;;;0.55;0.25;;;;;;;13.21;100.00;99664.75;6337926;22;19952;-47
2021/10/26 09:25:13;;;;;;;3.33;0.95;;;;;;;13.27;100.00;99654.41;6338112;22;20076;-47
2021/10/26 09:28:18;;;;;;;4.88;0.50;;;;;;;13.31;100.00;99659.75;6318776;22;20516;-48
2021/10/26 09:31:28;;;;;;;2.90;0.90;;;;;;;13.43;100.00;99656.50;6338202;22;20474;-47
2021/10/26 09:34:40;;;;;;;1.08;0.30;;;;;;;13.45;100.00;99653.22;6337718;22;20095;-47
2021/10/26 09:37:44;;;;;;;;;;;;;;;13.50;100.00;99663.69;6339489;22;20026;-47
2021/10/26 09:40:47;;;;;;;2.85;0.40;;;;;;;13.61;100.00;99658.16;6339607;22;19913;-47
2021/10/26 09:44:09;;;;;;;1.85;0.30;;;;;;;13.62;100.00;99670.88;6339891;22;20343;-47
2021/10/26 09:47:14;;;;;;;1.65;0.30;;;;;;;13.62;100.00;99666.03;6339675;22;20022;-47
2021/10/26 09:50:18;;;;;;;0.50;0.30;;;;;;;13.71;100.00;99653.13;6339975;22;20029;-47
2021/10/26 09:53:32;;;;;;;3.70;0.43;;;;;;;13.76;100.00;99652.34;6339269;22;20022;-47
2021/10/26 09:56:35;;;;;;;0.22;0.20;;;;;;;13.83;100.00;99657.47;6339437;22;20022;-48
2021/10/26 09:59:53;;;;;;;1.45;0.90;;;;;;;13.92;100.00;99654.47;6339409;22;20072;-48
2021/10/26 10:03:09;;;;;;;5.82;0.75;;;;;;;13.91;100.00;99675.31;6339615;22;20080;-47
2021/10/26 10:06:12;;;;;;;1.50;0.63;;;;;;;13.93;100.00;99678.38;6339879;22;20038;-47
2021/10/26 10:09:21;;;;;;;0.95;0.43;;;;;;;13.93;100.00;99683.97;6339884;22;20021;-47
2021/10/26 10:12:26;;;;;;;0.45;0.28;;;;;;;14.02;100.00;99676.13;6339486;22;20103;-47
2021/10/26 10:15:30;;;;;;;1.55;0.30;;;;;;;14.07;100.00;99669.81;6339474;22;20042;-47
2021/10/26 10:18:34;;;;;;;8.02;0.82;;;;;;;14.07;100.00;99671.84;6339120;22;20339;-47
2021/10/26 10:21:37;;;;;;;0.73;0.20;;;;;;;14.10;100.00;99676.41;6339402;22;20309;-46
2021/10/26 10:24:42;;;;;;;1.10;0.57;;;;;;;14.14;100.00;99682.56;6339119;22;20145;-46
2021/10/26 10:27:48;;;;;;;2.95;0.82;;;;;;;14.20;100.00;99680.53;6339497;22;20080;-46
2021/10/26 10:30:51;;;;;;;1.40;0.98;;;;;;;14.24;100.00;99675.44;6339524;22;20137;-46
2021/10/26 10:33:59;;;;;;;1.00;0.43;;;;;;;14.26;100.00;99673.69;6339266;22;20025;-46
2021/10/26 10:37:04;;;;;;;1.65;0.82;;;;;;;14.27;100.00;99674.44;6339254;22;20025;-47
2021/10/26 10:40:08;;;;;;;1.17;0.43;;;;;;;14.27;100.00;99675.19;6339373;22;20078;-47
2021/10/26 10:43:12;;;;;;;0.30;0.30;;;;;;;14.31;100.00;99680.59;6339522;22;20021;-47
2021/10/26 10:46:43;;;;;;;1.98;0.63;;;;;;;14.32;100.00;99679.31;6339364;22;20026;-47
2021/10/26 10:49:47;;;;;;;0.82;0.50;;;;;;;14.34;100.00;99683.16;6338968;22;20442;-47
2021/10/26 10:53:12;;;;;;;1.45;0.60;;;;;;;14.44;100.00;99683.69;6339226;22;20022;-47
2021/10/26 10:56:20;;;;;;;3.22;0.43;;;;;;;14.67;100.00;99685.25;6339343;22;20068;-47
2021/10/26 10:59:48;;;;;;;2.03;0.57;;;;;;;14.79;100.00;99677.63;6338624;22;20347;-47
2021/10/26 11:02:53;;;;;;;1.85;0.40;;;;;;;14.86;100.00;99674.28;6339040;22;20466;-47
2021/10/26 11:05:58;;;;;;;1.00;0.13;;;;;;;14.94;100.00;99673.28;6338311;22;20049;-47
2021/10/26 11:09:01;;;;;;;10.63;1.27;;;;;;;15.08;100.00;99677.88;6339487;22;20347;-47
2021/10/26 11:12:21;;;;;;;2.30;0.65;;;;;;;15.24;100.00;99686.78;6338827;22;20080;-47
2021/10/26 11:15:44;;;;;;;0.43;0.30;;;;;;;15.32;100.00;99682.19;6338568;22;20395;-47
2021/10/26 11:18:52;;;;;;;0.50;0.30;;;;;;;15.31;100.00;99680.66;6338943;22;20347;-47
2021/10/26 11:21:55;;;;;;;0.70;0.20;;;;;;;15.52;100.00;99679.13;6338160;22;20028;-47
2021/10/26 11:25:20;;;;;;;1.23;0.40;;;;;;;15.59;100.00;99673.72;6338956;22;20061;-48
2021/10/26 11:28:25;;;;;;;0.45;0.10;;;;;;;15.70;100.00;99672.97;6338396;22;20026;-47
2021/10/26 11:31:31;;;;;;;2.33;0.47;;;;;;;15.81;100.00;99672.88;6338768;22;20026;-47
2021/10/26 11:34:35;;;;;;;0.68;0.00;;;;;;;15.95;100.00;99669.03;6338452;22;20022;-48
2021/10/26 11:37:38;;;;;;;0.50;0.40;;;;;;;15.96;100.00;99670.53;6338829;22;20634;-47
2021/10/26 11:41:00;;;;;;;0.57;0.10;;;;;;;16.03;100.00;99661.56;6338506;22;20053;-47
2021/10/26 11:44:07;;;;;;;0.47;0.45;;;;;;;16.11;100.00;99659.00;6338692;22;20548;-47
2021/10/26 11:47:10;;;;;;;1.70;0.65;;;;;;;16.20;100.00;99670.69;6338617;22;20026;-47
2021/10/26 11:50:19;;;;;;;1.55;0.30;;;;;;;16.20;100.00;99662.25;6319760;22;20030;-47
2021/10/26 11:53:28;;;;;;;1.50;0.17;;;;;;;16.21;100.00;99660.97;6337997;22;20418;-47
2021/10/26 11:56:46;;;;;;;0.68;0.50;;;;;;;16.34;100.00;99657.59;6319698;22;20064;-47
2021/10/26 12:00:03;;;;;;;1.85;0.35;;;;;;;16.43;100.00;99655.25;6338295;22;20026;-47
2021/10/26 12:03:07;;;;;;;2.80;0.20;;;;;;;16.51;100.00;99650.59;6338651;22;20026;-47
2021/10/26 12:06:09;;;;;;;0.30;0.13;;;;;;;16.43;100.00;99646.03;6338321;22;20356;-48
2021/10/26 12:09:14;;;;;;;0.10;0.10;;;;;;;16.52;100.00;99663.38;6338463;22;20025;-48
2021/10/26 12:12:21;;;;;;;3.35;0.28;;;;;;;16.52;100.00;99660.56;6338610;22;20335;-48
2021/10/26 12:15:24;;;;;;;10.57;1.77;;;;;;;16.59;100.00;99662.81;6338462;22;20104;-48
2021/10/26 12:18:33;;;;;;;1.23;0.47;;;;;;;16.74;100.00;99661.72;6338272;22;20519;-48
2021/10/26 12:21:54;;;;;;;3.35;0.63;;;;;;;16.81;100.00;99658.31;6337931;22;20471;-47
2021/10/26 12:24:59;;;;;;;4.00;1.17;;;;;;;16.86;100.00;99663.91;6337861;22;20026;-47
2021/10/26 12:28:07;;;;;;;2.92;0.50;;;;;;;16.83;100.00;99664.19;6338039;22;20450;-48
2021/10/26 12:31:10;;;;;;;4.07;0.73;;;;;;;16.82;100.00;99657.81;6338770;22;20076;-55
2021/10/26 12:34:13;;;;;;;2.70;0.40;;;;;;;16.86;100.00;99660.31;6338505;22;20018;-55
2021/10/26 12:37:27;;;;;;;0.43;0.43;;;;;;;16.95;100.00;99657.94;6338555;22;20022;-55
2021/10/26 12:40:38;;;;;;;3.70;0.57;;;;;;;16.96;100.00;99662.28;6336815;22;20025;-55
2021/10/26 12:43:49;;;;;;;0.32;0.03;;;;;;;17.05;100.00;99658.38;6337334;22;20347;-55
2021/10/26 12:47:05;;;;;;;2.60;0.38;;;;;;;17.11;100.00;99664.69;6336920;22;20030;-55
2021/10/26 12:50:37;;;;;;;0.10;0.08;;;;;;;17.14;100.00;99663.66;6300887;22;20025;-55
2021/10/26 12:53:42;;;;;;;0.70;0.28;;;;;;;17.20;100.00;99665.13;6307131;22;20025;-53
2021/10/26 12:56:51;;;;;;;2.10;0.45;;;;;;;17.15;100.00;99662.38;6309544;22;20368;-54
2021/10/26 13:00:18;;;;;;;1.65;0.28;;;;;;;17.22;100.00;99645.66;6308945;22;20110;-53
2021/10/26 13:03:25;;;;;;;0.25;0.10;;;;;;;17.22;100.00;99656.94;6338468;22;20072;-54
2021/10/26 13:06:37;;;;;;;0.17;0.10;;;;;;;17.24;100.00;99662.03;6338158;22;20022;-53
2021/10/26 13:09:45;;;;;;;2.75;0.35;;;;;;;17.26;100.00;99646.13;6338283;22;20034;-54
2021/10/26 13:13:07;;;;;;;2.22;0.22;;;;;;;17.41;100.00;99652.13;6319509;22;20272;-53
2021/10/26 13:16:27;;;;;;;;;;;;;;;17.48;100.00;99645.16;6317749;22;20981;-54
2021/10/26 13:19:31;;;;;;;7.03;0.50;;;;;;;17.63;100.00;99651.16;6319078;22;19913;-53
2021/10/26 13:22:35;;;;;;;0.70;0.28;;;;;;;17.60;100.00;99652.22;6340024;22;20397;-53
2021/10/26 13:25:38;;;;;;;0.98;0.30;;;;;;;17.62;100.00;99649.66;6339726;22;20030;-53
2021/10/26 13:28:41;;;;;;;0.47;0.13;;;;;;;17.62;100.00;99652.47;6339333;22;20057;-53
2021/10/26 13:31:45;;;;;;;1.45;0.45;;;;;;;17.58;100.00;99643.56;6339649;22;20064;-53
2021/10/26 13:34:49;;;;;;;3.38;0.10;;;;;;;17.61;100.00;99642.47;6339577;22;20018;-54
2021/10/26 13:37:53;;;;;;;4.10;0.25;;;;;;;17.61;100.00;99647.34;6340187;22;20478;-53
2021/10/26 13:40:58;;;;;;;0.28;0.00;;;;;;;17.54;100.00;99651.53;6339497;22;20030;-54
2021/10/26 13:44:04;;;;;;;1.00;0.00;;;;;;;17.46;100.00;99642.09;6340012;22;20026;-54
2021/10/26 13:47:15;;;;;;;3.88;0.20;;;;;;;17.39;100.00;99637.06;6339308;22;20090;-54
2021/10/26 13:50:58;;;;;;;0.28;0.25;;;;;;;17.39;100.00;99642.69;6321487;22;20030;-56
2021/10/26 13:54:29;;;;;;;3.65;0.43;;;;;;;17.41;100.00;99637.31;6322855;22;20067;-54
2021/10/26 13:57:41;;;;;;;0.20;0.10;;;;;;;17.46;100.00;99644.91;6321035;22;20099;-54
2021/10/26 14:00:48;;;;;;;1.25;0.10;;;;;;;17.47;100.00;99626.75;6339421;22;20048;-58
2021/10/26 14:03:52;;;;;;;3.60;0.28;;;;;;;17.49;100.00;99624.16;6338638;22;20407;-58
2021/10/26 14:06:55;;;;;;;0.10;0.08;;;;;;;17.54;100.00;99631.81;6338798;22;20026;-57
2021/10/26 14:09:58;;;;;;;3.50;0.38;;;;;;;17.52;100.00;99634.38;6338489;22;20027;-57
2021/10/26 14:13:13;;;;;;;0.52;0.20;;;;;;;17.40;100.00;99628.09;6339036;22;20025;-59
2021/10/26 14:16:35;;;;;;;0.10;0.10;;;;;;;17.37;100.00;99631.19;6320816;22;20042;-47
2021/10/26 14:19:43;;;;;;;0.32;0.32;;;;;;;17.31;100.00;99625.63;6304554;22;20026;-48
2021/10/26 14:22:47;;;;;;;1.23;0.30;;;;;;;17.30;100.00;99626.91;6338756;22;20450;-48
2021/10/26 14:25:57;;;;;;;0.65;0.15;;;;;;;17.29;100.00;99631.03;6339092;22;20026;-47
2021/10/26 14:29:00;;;;;;;0.75;0.10;;;;;;;17.23;100.00;99635.19;6338304;22;20650;-47
2021/10/26 14:32:05;;;;;;;2.05;0.05;;;;;;;17.16;100.00;99628.09;6338913;22;20025;-46
2021/10/26 14:35:12;;;;;;;1.55;0.20;;;;;;;17.13;100.00;99626.31;6337878;22;20075;-47
2021/10/26 14:38:36;;;;;;;1.05;0.13;;;;;;;17.07;100.00;99628.41;6337801;22;20107;-46